sensor_id;sensor_type;location;lat;lon;timestamp;P1;durP1;ratioP1;P2;durP2;ratioP2
41984;SDS011;28319;48.116;10.818;2024-01-15T00:00:10;5.20;;;3.47;;
41984;SDS011;28319;48.116;10.818;2024-01-15T00:05:13;4.93;;;3.27;;
41984;SDS011;28319;48.116;10.818;2024-01-15T00:10:16;6.50;;;4.00;;
41984;SDS011;28319;48.116;10.818;2024-01-15T00:15:18;8.43;;;3.93;;
41984;SDS011;28319;48.116;10.818;2024-01-15T00:20:20;4.57;;;3.40;;
41984;SDS011;28319;48.116;10.818;2024-01-15T00:25:23;7.47;;;4.13;;
41984;SDS011;28319;48.116;10.818;2024-01-15T00:30:25;6.57;;;4.20;;
41984;SDS011;28319;48.116;10.818;2024-01-15T00:35:27;6.00;;;4.10;;
41984;SDS011;28319;48.116;10.818;2024-01-15T00:40:31;7.43;;;4.30;;
41984;SDS011;28319;48.116;10.818;2024-01-15T00:45:33;6.30;;;4.10;;
41984;SDS011;28319;48.116;10.818;2024-01-15T00:50:35;8.10;;;4.47;;
41984;SDS011;28319;48.116;10.818;2024-01-15T00:55:38;8.60;;;5.60;;
41984;SDS011;28319;48.116;10.818;2024-01-15T01:00:40;10.17;;;5.30;;
41984;SDS011;28319;48.116;10.818;2024-01-15T01:05:42;8.10;;;4.97;;
41984;SDS011;28319;48.116;10.818;2024-01-15T01:10:46;9.00;;;4.97;;
41984;SDS011;28319;48.116;10.818;2024-01-15T01:15:48;8.17;;;4.93;;
41984;SDS011;28319;48.116;10.818;2024-01-15T01:20:50;9.60;;;5.77;;
41984;SDS011;28319;48.116;10.818;2024-01-15T01:25:53;9.40;;;5.27;;
41984;SDS011;28319;48.116;10.818;2024-01-15T01:30:55;10.07;;;5.20;;
41984;SDS011;28319;48.116;10.818;2024-01-15T01:35:57;9.03;;;5.70;;
41984;SDS011;28319;48.116;10.818;2024-01-15T01:41:00;9.47;;;5.73;;
41984;SDS011;28319;48.116;10.818;2024-01-15T01:46:03;11.63;;;5.77;;
41984;SDS011;28319;48.116;10.818;2024-01-15T01:51:07;8.37;;;5.10;;
41984;SDS011;28319;48.116;10.818;2024-01-15T01:56:10;8.30;;;4.70;;
41984;SDS011;28319;48.116;10.818;2024-01-15T02:01:13;11.23;;;5.33;;
41984;SDS011;28319;48.116;10.818;2024-01-15T02:06:17;10.50;;;5.73;;
41984;SDS011;28319;48.116;10.818;2024-01-15T02:11:21;9.30;;;4.90;;
41984;SDS011;28319;48.116;10.818;2024-01-15T02:16:23;8.27;;;4.93;;
41984;SDS011;28319;48.116;10.818;2024-01-15T02:21:25;8.77;;;5.43;;
41984;SDS011;28319;48.116;10.818;2024-01-15T02:26:30;11.63;;;6.20;;
41984;SDS011;28319;48.116;10.818;2024-01-15T02:31:36;10.00;;;5.53;;
41984;SDS011;28319;48.116;10.818;2024-01-15T02:36:38;11.00;;;5.40;;
41984;SDS011;28319;48.116;10.818;2024-01-15T02:41:41;9.70;;;4.67;;
41984;SDS011;28319;48.116;10.818;2024-01-15T02:46:43;9.70;;;4.77;;
41984;SDS011;28319;48.116;10.818;2024-01-15T02:51:45;10.27;;;4.90;;
41984;SDS011;28319;48.116;10.818;2024-01-15T02:56:48;7.53;;;4.50;;
41984;SDS011;28319;48.116;10.818;2024-01-15T03:01:50;8.03;;;4.97;;
41984;SDS011;28319;48.116;10.818;2024-01-15T03:06:52;8.73;;;4.67;;
41984;SDS011;28319;48.116;10.818;2024-01-15T03:11:55;8.90;;;4.63;;
41984;SDS011;28319;48.116;10.818;2024-01-15T03:16:57;8.00;;;4.70;;
41984;SDS011;28319;48.116;10.818;2024-01-15T03:22:00;9.60;;;4.93;;
41984;SDS011;28319;48.116;10.818;2024-01-15T03:27:05;7.27;;;4.77;;
41984;SDS011;28319;48.116;10.818;2024-01-15T03:32:07;8.30;;;4.37;;
41984;SDS011;28319;48.116;10.818;2024-01-15T03:37:09;7.47;;;4.37;;
41984;SDS011;28319;48.116;10.818;2024-01-15T03:42:12;7.13;;;4.70;;
41984;SDS011;28319;48.116;10.818;2024-01-15T03:47:16;6.80;;;4.50;;
41984;SDS011;28319;48.116;10.818;2024-01-15T03:52:18;8.03;;;4.03;;
41984;SDS011;28319;48.116;10.818;2024-01-15T03:57:21;8.60;;;4.50;;
41984;SDS011;28319;48.116;10.818;2024-01-15T04:02:23;8.33;;;4.57;;
41984;SDS011;28319;48.116;10.818;2024-01-15T04:07:25;7.10;;;4.53;;
41984;SDS011;28319;48.116;10.818;2024-01-15T04:12:28;12.27;;;4.50;;
41984;SDS011;28319;48.116;10.818;2024-01-15T04:17:30;6.53;;;3.93;;
41984;SDS011;28319;48.116;10.818;2024-01-15T04:22:32;6.53;;;4.10;;
41984;SDS011;28319;48.116;10.818;2024-01-15T04:27:36;6.17;;;4.23;;
41984;SDS011;28319;48.116;10.818;2024-01-15T04:32:38;6.37;;;4.37;;
41984;SDS011;28319;48.116;10.818;2024-01-15T04:37:40;7.47;;;4.23;;
41984;SDS011;28319;48.116;10.818;2024-01-15T04:42:43;5.90;;;3.80;;
41984;SDS011;28319;48.116;10.818;2024-01-15T04:47:46;7.07;;;3.83;;
41984;SDS011;28319;48.116;10.818;2024-01-15T04:52:48;5.53;;;3.10;;
41984;SDS011;28319;48.116;10.818;2024-01-15T04:57:52;6.37;;;3.57;;
41984;SDS011;28319;48.116;10.818;2024-01-15T05:02:54;6.37;;;4.07;;
41984;SDS011;28319;48.116;10.818;2024-01-15T05:07:56;4.70;;;3.20;;
41984;SDS011;28319;48.116;10.818;2024-01-15T05:12:59;7.50;;;4.03;;
41984;SDS011;28319;48.116;10.818;2024-01-15T05:18:01;7.20;;;3.50;;
41984;SDS011;28319;48.116;10.818;2024-01-15T05:23:03;5.87;;;3.90;;
41984;SDS011;28319;48.116;10.818;2024-01-15T05:28:07;6.10;;;3.37;;
41984;SDS011;28319;48.116;10.818;2024-01-15T05:33:09;6.53;;;3.60;;
41984;SDS011;28319;48.116;10.818;2024-01-15T05:38:11;5.97;;;3.77;;
41984;SDS011;28319;48.116;10.818;2024-01-15T05:43:18;6.77;;;4.27;;
41984;SDS011;28319;48.116;10.818;2024-01-15T05:48:20;6.70;;;4.07;;
41984;SDS011;28319;48.116;10.818;2024-01-15T05:53:22;12.37;;;5.70;;
41984;SDS011;28319;48.116;10.818;2024-01-15T05:58:25;16.67;;;7.13;;
41984;SDS011;28319;48.116;10.818;2024-01-15T06:03:27;7.77;;;4.00;;
41984;SDS011;28319;48.116;10.818;2024-01-15T06:08:29;8.57;;;3.80;;
41984;SDS011;28319;48.116;10.818;2024-01-15T06:13:32;6.20;;;3.87;;
41984;SDS011;28319;48.116;10.818;2024-01-15T06:18:34;7.40;;;4.10;;
41984;SDS011;28319;48.116;10.818;2024-01-15T06:23:36;7.90;;;4.17;;
41984;SDS011;28319;48.116;10.818;2024-01-15T06:28:40;7.50;;;3.50;;
41984;SDS011;28319;48.116;10.818;2024-01-15T06:33:42;6.17;;;3.80;;
41984;SDS011;28319;48.116;10.818;2024-01-15T06:38:45;7.83;;;3.87;;
41984;SDS011;28319;48.116;10.818;2024-01-15T06:43:49;5.07;;;3.47;;
41984;SDS011;28319;48.116;10.818;2024-01-15T06:48:50;12.70;;;7.30;;
41984;SDS011;28319;48.116;10.818;2024-01-15T06:53:52;6.27;;;3.93;;
41984;SDS011;28319;48.116;10.818;2024-01-15T06:58:56;7.17;;;3.97;;
41984;SDS011;28319;48.116;10.818;2024-01-15T07:03:58;5.47;;;3.27;;
41984;SDS011;28319;48.116;10.818;2024-01-15T07:09:00;6.13;;;3.77;;
41984;SDS011;28319;48.116;10.818;2024-01-15T07:14:03;7.17;;;3.53;;
41984;SDS011;28319;48.116;10.818;2024-01-15T07:19:05;6.40;;;4.07;;
41984;SDS011;28319;48.116;10.818;2024-01-15T07:24:07;7.97;;;3.60;;
41984;SDS011;28319;48.116;10.818;2024-01-15T07:29:11;6.03;;;3.37;;
41984;SDS011;28319;48.116;10.818;2024-01-15T07:34:13;5.97;;;3.90;;
41984;SDS011;28319;48.116;10.818;2024-01-15T07:39:15;6.43;;;3.90;;
41984;SDS011;28319;48.116;10.818;2024-01-15T07:44:20;7.00;;;3.90;;
41984;SDS011;28319;48.116;10.818;2024-01-15T07:49:22;7.37;;;4.33;;
41984;SDS011;28319;48.116;10.818;2024-01-15T07:54:24;6.77;;;3.50;;
41984;SDS011;28319;48.116;10.818;2024-01-15T07:59:27;7.23;;;4.10;;
41984;SDS011;28319;48.116;10.818;2024-01-15T08:04:29;7.53;;;5.40;;
41984;SDS011;28319;48.116;10.818;2024-01-15T08:09:31;8.60;;;3.90;;
41984;SDS011;28319;48.116;10.818;2024-01-15T08:14:34;8.77;;;4.17;;
41984;SDS011;28319;48.116;10.818;2024-01-15T08:19:36;5.80;;;3.60;;
41984;SDS011;28319;48.116;10.818;2024-01-15T08:24:41;4.40;;;3.33;;
41984;SDS011;28319;48.116;10.818;2024-01-15T08:29:44;5.73;;;3.70;;
41984;SDS011;28319;48.116;10.818;2024-01-15T08:34:46;5.80;;;3.80;;
41984;SDS011;28319;48.116;10.818;2024-01-15T08:39:52;8.50;;;4.23;;
41984;SDS011;28319;48.116;10.818;2024-01-15T08:44:56;5.17;;;3.20;;
41984;SDS011;28319;48.116;10.818;2024-01-15T08:49:58;6.57;;;3.77;;
41984;SDS011;28319;48.116;10.818;2024-01-15T08:55:00;4.67;;;3.10;;
41984;SDS011;28319;48.116;10.818;2024-01-15T09:00:04;5.90;;;3.50;;
41984;SDS011;28319;48.116;10.818;2024-01-15T09:05:08;4.63;;;3.43;;
41984;SDS011;28319;48.116;10.818;2024-01-15T09:10:10;4.00;;;2.80;;
41984;SDS011;28319;48.116;10.818;2024-01-15T09:15:13;4.90;;;3.13;;
41984;SDS011;28319;48.116;10.818;2024-01-15T09:20:15;5.07;;;3.43;;
41984;SDS011;28319;48.116;10.818;2024-01-15T09:25:18;4.93;;;3.53;;
41984;SDS011;28319;48.116;10.818;2024-01-15T09:30:22;3.97;;;2.77;;
41984;SDS011;28319;48.116;10.818;2024-01-15T09:35:24;4.77;;;3.30;;
41984;SDS011;28319;48.116;10.818;2024-01-15T09:40:26;5.47;;;3.00;;
41984;SDS011;28319;48.116;10.818;2024-01-15T09:45:34;4.40;;;2.93;;
41984;SDS011;28319;48.116;10.818;2024-01-15T09:50:36;3.47;;;2.87;;
41984;SDS011;28319;48.116;10.818;2024-01-15T09:55:38;4.30;;;2.73;;
41984;SDS011;28319;48.116;10.818;2024-01-15T10:00:42;5.33;;;3.23;;
41984;SDS011;28319;48.116;10.818;2024-01-15T10:05:45;3.77;;;2.83;;
41984;SDS011;28319;48.116;10.818;2024-01-15T10:10:48;3.67;;;3.00;;
41984;SDS011;28319;48.116;10.818;2024-01-15T10:15:51;5.33;;;3.53;;
41984;SDS011;28319;48.116;10.818;2024-01-15T10:20:54;5.80;;;3.10;;
41984;SDS011;28319;48.116;10.818;2024-01-15T10:25:57;4.70;;;3.27;;
41984;SDS011;28319;48.116;10.818;2024-01-15T10:31:01;4.47;;;3.10;;
41984;SDS011;28319;48.116;10.818;2024-01-15T10:36:04;2.87;;;2.57;;
41984;SDS011;28319;48.116;10.818;2024-01-15T10:41:11;4.43;;;3.10;;
41984;SDS011;28319;48.116;10.818;2024-01-15T10:46:15;5.00;;;3.13;;
41984;SDS011;28319;48.116;10.818;2024-01-15T10:51:17;4.57;;;2.77;;
41984;SDS011;28319;48.116;10.818;2024-01-15T10:56:19;5.27;;;3.00;;
41984;SDS011;28319;48.116;10.818;2024-01-15T11:01:25;3.10;;;2.80;;
41984;SDS011;28319;48.116;10.818;2024-01-15T11:06:27;4.47;;;3.07;;
41984;SDS011;28319;48.116;10.818;2024-01-15T11:11:44;6.63;;;3.53;;
41984;SDS011;28319;48.116;10.818;2024-01-15T11:16:56;5.47;;;3.40;;
41984;SDS011;28319;48.116;10.818;2024-01-15T11:21:59;3.20;;;2.73;;
41984;SDS011;28319;48.116;10.818;2024-01-15T11:27:01;4.70;;;3.07;;
41984;SDS011;28319;48.116;10.818;2024-01-15T11:32:06;5.07;;;3.23;;
41984;SDS011;28319;48.116;10.818;2024-01-15T11:37:08;4.73;;;3.23;;
41984;SDS011;28319;48.116;10.818;2024-01-15T11:42:11;4.03;;;2.87;;
41984;SDS011;28319;48.116;10.818;2024-01-15T11:47:15;5.20;;;2.93;;
41984;SDS011;28319;48.116;10.818;2024-01-15T11:52:26;4.67;;;2.83;;
41984;SDS011;28319;48.116;10.818;2024-01-15T11:57:33;3.37;;;3.07;;
41984;SDS011;28319;48.116;10.818;2024-01-15T12:02:45;3.20;;;2.57;;
41984;SDS011;28319;48.116;10.818;2024-01-15T12:07:48;4.50;;;2.93;;
41984;SDS011;28319;48.116;10.818;2024-01-15T12:12:53;4.63;;;3.00;;
41984;SDS011;28319;48.116;10.818;2024-01-15T12:18:00;4.63;;;3.30;;
41984;SDS011;28319;48.116;10.818;2024-01-15T12:23:03;3.97;;;3.03;;
41984;SDS011;28319;48.116;10.818;2024-01-15T12:28:05;4.03;;;2.90;;
41984;SDS011;28319;48.116;10.818;2024-01-15T12:33:09;4.07;;;3.17;;
41984;SDS011;28319;48.116;10.818;2024-01-15T12:38:11;3.67;;;3.03;;
41984;SDS011;28319;48.116;10.818;2024-01-15T12:43:13;3.60;;;2.67;;
41984;SDS011;28319;48.116;10.818;2024-01-15T12:48:16;6.60;;;3.87;;
41984;SDS011;28319;48.116;10.818;2024-01-15T12:53:19;4.50;;;3.20;;
41984;SDS011;28319;48.116;10.818;2024-01-15T12:58:21;5.17;;;3.77;;
41984;SDS011;28319;48.116;10.818;2024-01-15T13:03:24;5.57;;;3.50;;
41984;SDS011;28319;48.116;10.818;2024-01-15T13:08:26;4.43;;;3.20;;
41984;SDS011;28319;48.116;10.818;2024-01-15T13:13:29;5.13;;;3.10;;
41984;SDS011;28319;48.116;10.818;2024-01-15T13:18:36;4.67;;;3.37;;
41984;SDS011;28319;48.116;10.818;2024-01-15T13:23:38;4.57;;;3.37;;
41984;SDS011;28319;48.116;10.818;2024-01-15T13:28:40;3.20;;;2.60;;
41984;SDS011;28319;48.116;10.818;2024-01-15T13:33:43;4.50;;;3.13;;
41984;SDS011;28319;48.116;10.818;2024-01-15T13:38:45;4.83;;;2.90;;
41984;SDS011;28319;48.116;10.818;2024-01-15T13:43:49;4.60;;;3.13;;
41984;SDS011;28319;48.116;10.818;2024-01-15T13:48:54;3.30;;;2.53;;
41984;SDS011;28319;48.116;10.818;2024-01-15T13:53:56;4.33;;;3.17;;
41984;SDS011;28319;48.116;10.818;2024-01-15T13:58:59;3.17;;;2.63;;
41984;SDS011;28319;48.116;10.818;2024-01-15T14:04:02;4.07;;;2.70;;
41984;SDS011;28319;48.116;10.818;2024-01-15T14:09:04;3.97;;;2.80;;
41984;SDS011;28319;48.116;10.818;2024-01-15T14:14:09;7.17;;;3.03;;
41984;SDS011;28319;48.116;10.818;2024-01-15T14:19:13;4.87;;;3.07;;
41984;SDS011;28319;48.116;10.818;2024-01-15T14:24:15;4.80;;;2.73;;
41984;SDS011;28319;48.116;10.818;2024-01-15T14:29:17;5.30;;;3.33;;
41984;SDS011;28319;48.116;10.818;2024-01-15T14:34:24;6.87;;;3.70;;
41984;SDS011;28319;48.116;10.818;2024-01-15T14:39:26;3.83;;;2.63;;
41984;SDS011;28319;48.116;10.818;2024-01-15T14:44:28;7.10;;;2.70;;
41984;SDS011;28319;48.116;10.818;2024-01-15T14:49:32;4.13;;;2.70;;
41984;SDS011;28319;48.116;10.818;2024-01-15T14:54:34;4.60;;;3.30;;
41984;SDS011;28319;48.116;10.818;2024-01-15T14:59:36;3.53;;;2.63;;
41984;SDS011;28319;48.116;10.818;2024-01-15T15:04:39;3.30;;;2.83;;
41984;SDS011;28319;48.116;10.818;2024-01-15T15:09:42;4.20;;;2.80;;
41984;SDS011;28319;48.116;10.818;2024-01-15T15:14:43;6.37;;;3.20;;
41984;SDS011;28319;48.116;10.818;2024-01-15T15:19:47;4.13;;;2.77;;
41984;SDS011;28319;48.116;10.818;2024-01-15T15:24:49;4.20;;;3.50;;
41984;SDS011;28319;48.116;10.818;2024-01-15T15:29:51;3.70;;;2.70;;
41984;SDS011;28319;48.116;10.818;2024-01-15T15:34:54;3.57;;;2.90;;
41984;SDS011;28319;48.116;10.818;2024-01-15T15:39:57;17.17;;;8.03;;
41984;SDS011;28319;48.116;10.818;2024-01-15T15:44:59;6.07;;;3.47;;
41984;SDS011;28319;48.116;10.818;2024-01-15T15:50:03;4.20;;;3.17;;
41984;SDS011;28319;48.116;10.818;2024-01-15T15:55:06;4.53;;;2.97;;
41984;SDS011;28319;48.116;10.818;2024-01-15T16:00:09;3.33;;;3.03;;
41984;SDS011;28319;48.116;10.818;2024-01-15T16:05:13;4.33;;;3.13;;
41984;SDS011;28319;48.116;10.818;2024-01-15T16:10:15;5.87;;;3.23;;
41984;SDS011;28319;48.116;10.818;2024-01-15T16:15:18;4.87;;;3.37;;
41984;SDS011;28319;48.116;10.818;2024-01-15T16:20:22;4.30;;;3.50;;
41984;SDS011;28319;48.116;10.818;2024-01-15T16:25:24;4.57;;;2.80;;
41984;SDS011;28319;48.116;10.818;2024-01-15T16:30:26;4.83;;;3.20;;
41984;SDS011;28319;48.116;10.818;2024-01-15T16:35:30;5.33;;;3.43;;
41984;SDS011;28319;48.116;10.818;2024-01-15T16:40:32;5.73;;;3.50;;
41984;SDS011;28319;48.116;10.818;2024-01-15T16:45:34;4.03;;;3.33;;
41984;SDS011;28319;48.116;10.818;2024-01-15T16:50:37;6.20;;;3.80;;
41984;SDS011;28319;48.116;10.818;2024-01-15T16:55:39;6.03;;;3.70;;
41984;SDS011;28319;48.116;10.818;2024-01-15T17:00:41;8.13;;;5.20;;
41984;SDS011;28319;48.116;10.818;2024-01-15T17:05:45;6.53;;;4.30;;
41984;SDS011;28319;48.116;10.818;2024-01-15T17:10:47;6.10;;;3.93;;
41984;SDS011;28319;48.116;10.818;2024-01-15T17:15:49;3.90;;;3.10;;
41984;SDS011;28319;48.116;10.818;2024-01-15T17:20:53;4.60;;;2.93;;
41984;SDS011;28319;48.116;10.818;2024-01-15T17:25:54;3.80;;;3.00;;
41984;SDS011;28319;48.116;10.818;2024-01-15T17:30:56;2.60;;;2.40;;
41984;SDS011;28319;48.116;10.818;2024-01-15T17:36:00;2.37;;;1.43;;
41984;SDS011;28319;48.116;10.818;2024-01-15T17:41:02;2.27;;;1.77;;
41984;SDS011;28319;48.116;10.818;2024-01-15T17:46:04;1.40;;;1.30;;
41984;SDS011;28319;48.116;10.818;2024-01-15T17:51:08;2.07;;;1.83;;
41984;SDS011;28319;48.116;10.818;2024-01-15T17:56:10;3.80;;;2.13;;
41984;SDS011;28319;48.116;10.818;2024-01-15T18:01:13;2.20;;;1.70;;
41984;SDS011;28319;48.116;10.818;2024-01-15T18:06:16;2.70;;;1.90;;
41984;SDS011;28319;48.116;10.818;2024-01-15T18:11:18;3.80;;;2.10;;
41984;SDS011;28319;48.116;10.818;2024-01-15T18:16:21;3.00;;;2.60;;
41984;SDS011;28319;48.116;10.818;2024-01-15T18:21:25;4.80;;;3.23;;
41984;SDS011;28319;48.116;10.818;2024-01-15T18:26:27;4.20;;;2.60;;
41984;SDS011;28319;48.116;10.818;2024-01-15T18:31:29;2.60;;;2.40;;
41984;SDS011;28319;48.116;10.818;2024-01-15T18:36:32;3.20;;;2.60;;
41984;SDS011;28319;48.116;10.818;2024-01-15T18:41:34;5.03;;;3.30;;
41984;SDS011;28319;48.116;10.818;2024-01-15T18:46:36;3.97;;;2.90;;
41984;SDS011;28319;48.116;10.818;2024-01-15T18:51:40;2.73;;;2.50;;
41984;SDS011;28319;48.116;10.818;2024-01-15T18:56:42;4.83;;;3.00;;
41984;SDS011;28319;48.116;10.818;2024-01-15T19:01:44;3.17;;;2.67;;
41984;SDS011;28319;48.116;10.818;2024-01-15T19:06:48;4.10;;;2.90;;
41984;SDS011;28319;48.116;10.818;2024-01-15T19:11:50;4.57;;;2.90;;
41984;SDS011;28319;48.116;10.818;2024-01-15T19:16:52;3.50;;;2.00;;
41984;SDS011;28319;48.116;10.818;2024-01-15T19:21:55;2.67;;;2.07;;
41984;SDS011;28319;48.116;10.818;2024-01-15T19:26:57;4.53;;;2.40;;
41984;SDS011;28319;48.116;10.818;2024-01-15T19:31:59;2.30;;;2.00;;
41984;SDS011;28319;48.116;10.818;2024-01-15T19:37:03;2.37;;;2.17;;
41984;SDS011;28319;48.116;10.818;2024-01-15T19:42:05;2.50;;;2.30;;
41984;SDS011;28319;48.116;10.818;2024-01-15T19:47:07;2.80;;;2.10;;
41984;SDS011;28319;48.116;10.818;2024-01-15T19:52:11;2.13;;;1.93;;
41984;SDS011;28319;48.116;10.818;2024-01-15T19:57:13;2.77;;;1.97;;
41984;SDS011;28319;48.116;10.818;2024-01-15T20:02:15;3.17;;;2.07;;
41984;SDS011;28319;48.116;10.818;2024-01-15T20:07:18;2.33;;;2.10;;
41984;SDS011;28319;48.116;10.818;2024-01-15T20:12:20;3.40;;;2.17;;
41984;SDS011;28319;48.116;10.818;2024-01-15T20:17:22;2.50;;;2.20;;
41984;SDS011;28319;48.116;10.818;2024-01-15T20:22:25;3.57;;;2.17;;
41984;SDS011;28319;48.116;10.818;2024-01-15T20:27:28;1.90;;;1.80;;
41984;SDS011;28319;48.116;10.818;2024-01-15T20:32:30;3.03;;;2.23;;
41984;SDS011;28319;48.116;10.818;2024-01-15T20:37:34;3.27;;;2.43;;
41984;SDS011;28319;48.116;10.818;2024-01-15T20:42:36;3.10;;;2.10;;
41984;SDS011;28319;48.116;10.818;2024-01-15T20:47:41;2.53;;;2.10;;
41984;SDS011;28319;48.116;10.818;2024-01-15T20:52:45;4.13;;;2.10;;
41984;SDS011;28319;48.116;10.818;2024-01-15T20:57:47;2.57;;;2.27;;
41984;SDS011;28319;48.116;10.818;2024-01-15T21:02:49;2.57;;;2.10;;
41984;SDS011;28319;48.116;10.818;2024-01-15T21:07:52;2.40;;;2.20;;
41984;SDS011;28319;48.116;10.818;2024-01-15T21:12:55;2.67;;;1.90;;
41984;SDS011;28319;48.116;10.818;2024-01-15T21:17:58;3.37;;;1.70;;
41984;SDS011;28319;48.116;10.818;2024-01-15T21:23:03;1.93;;;1.80;;
41984;SDS011;28319;48.116;10.818;2024-01-15T21:28:06;1.70;;;1.50;;
41984;SDS011;28319;48.116;10.818;2024-01-15T21:33:08;2.80;;;1.80;;
41984;SDS011;28319;48.116;10.818;2024-01-15T21:38:12;1.77;;;1.40;;
41984;SDS011;28319;48.116;10.818;2024-01-15T21:43:14;3.50;;;1.70;;
41984;SDS011;28319;48.116;10.818;2024-01-15T21:48:17;3.17;;;1.97;;
41984;SDS011;28319;48.116;10.818;2024-01-15T21:53:20;1.67;;;1.57;;
41984;SDS011;28319;48.116;10.818;2024-01-15T21:58:22;2.00;;;1.60;;
41984;SDS011;28319;48.116;10.818;2024-01-15T22:03:24;2.90;;;1.33;;
41984;SDS011;28319;48.116;10.818;2024-01-15T22:08:29;1.97;;;1.53;;
41984;SDS011;28319;48.116;10.818;2024-01-15T22:13:31;1.87;;;1.70;;
41984;SDS011;28319;48.116;10.818;2024-01-15T22:18:33;1.57;;;1.47;;
41984;SDS011;28319;48.116;10.818;2024-01-15T22:23:37;1.60;;;1.50;;
41984;SDS011;28319;48.116;10.818;2024-01-15T22:28:39;1.63;;;1.47;;
41984;SDS011;28319;48.116;10.818;2024-01-15T22:33:40;2.77;;;1.77;;
41984;SDS011;28319;48.116;10.818;2024-01-15T22:38:44;2.40;;;1.77;;
41984;SDS011;28319;48.116;10.818;2024-01-15T22:43:48;1.73;;;1.60;;
41984;SDS011;28319;48.116;10.818;2024-01-15T22:48:51;1.90;;;1.47;;
41984;SDS011;28319;48.116;10.818;2024-01-15T22:53:54;1.90;;;1.70;;
41984;SDS011;28319;48.116;10.818;2024-01-15T22:58:56;3.53;;;2.50;;
41984;SDS011;28319;48.116;10.818;2024-01-15T23:03:58;2.47;;;1.73;;
41984;SDS011;28319;48.116;10.818;2024-01-15T23:09:01;1.80;;;1.70;;
41984;SDS011;28319;48.116;10.818;2024-01-15T23:14:03;1.93;;;1.83;;
41984;SDS011;28319;48.116;10.818;2024-01-15T23:19:05;1.77;;;1.67;;
41984;SDS011;28319;48.116;10.818;2024-01-15T23:24:08;2.23;;;1.90;;
41984;SDS011;28319;48.116;10.818;2024-01-15T23:29:10;1.97;;;1.80;;
41984;SDS011;28319;48.116;10.818;2024-01-15T23:34:12;1.80;;;1.70;;
41984;SDS011;28319;48.116;10.818;2024-01-15T23:39:16;2.10;;;1.67;;
41984;SDS011;28319;48.116;10.818;2024-01-15T23:44:18;3.17;;;2.67;;
41984;SDS011;28319;48.116;10.818;2024-01-15T23:49:20;2.17;;;1.90;;
41984;SDS011;28319;48.116;10.818;2024-01-15T23:54:23;2.77;;;2.20;;
41984;SDS011;28319;48.116;10.818;2024-01-15T23:59:25;2.30;;;1.90;;
